Time;durP1;ratioP1;P1;durP2;ratioP2;P2;SDS_P1;SDS_P2;PMS_P1;PMS_P2;Temp;Humidity;BMP_temperature;BMP_pressure;BME280_temperature;BME280_humidity;BME280_pressure;Samples;Min_cycle;Max_cycle;Signal;HPM_P1;HPM_P2
2022/06/13 00:01:02;;;;;;;6.30;3.70;;;;;;;19.68;56.36;99076.63;234501;1210;138656;-59
2022/06/13 00:06:06;;;;;;;6.30;3.80;;;;;;;19.65;56.50;99064.33;234769;1209;140823;-58
2022/06/13 00:11:13;;;;;;;7.30;3.90;;;;;;;19.65;56.68;99064.50;234746;1208;138931;-55
2022/06/13 00:16:17;;;;;;;6.30;3.90;;;;;;;19.64;56.78;99063.69;234825;1209;138829;-57
2022/06/13 00:21:29;;;;;;;10.50;4.50;;;;;;;19.60;56.85;99052.52;234578;1210;138526;-58
2022/06/13 00:26:34;;;;;;;8.80;3.90;;;;;;;19.57;56.84;99049.84;234753;1209;138554;-56
2022/06/13 00:31:37;;;;;;;4.50;3.90;;;;;;;19.50;57.01;99044.02;234759;1209;138586;-55
2022/06/13 00:36:40;;;;;;;10.30;4.20;;;;;;;19.44;57.18;99035.66;234909;1209;138524;-57
2022/06/13 00:41:46;;;;;;;6.00;4.20;;;;;;;19.37;57.14;99031.30;234852;1208;138771;-60
2022/06/13 00:46:54;;;;;;;7.60;4.20;;;;;;;19.32;57.35;99029.29;234681;1210;137696;-58
2022/06/13 00:52:18;;;;;;;7.80;4.30;;;;;;;19.26;57.57;99017.95;234911;1209;139377;-57
2022/06/13 00:57:25;;;;;;;7.10;4.00;;;;;;;19.23;57.52;99014.91;234967;1209;138991;-58
2022/06/13 01:02:28;;;;;;;5.30;4.00;;;;;;;19.21;57.56;99018.15;234605;1209;138856;-58
2022/06/13 01:07:32;;;;;;;6.20;4.00;;;;;;;19.14;57.43;99018.41;234543;1210;138594;-58
2022/06/13 01:12:37;;;;;;;14.30;4.30;;;;;;;19.08;57.57;99009.34;234656;1210;138715;-57
2022/06/13 01:18:17;;;;;;;5.80;4.20;;;;;;;19.00;57.36;99003.45;234820;1210;139437;-60
2022/06/13 01:23:38;;;;;;;7.20;4.50;;;;;;;18.89;57.61;98996.27;234819;1209;138237;-57
2022/06/13 01:28:41;;;;;;;7.40;4.80;;;;;;;18.77;57.57;98989.13;234968;1209;138482;-58
2022/06/13 01:33:49;;;;;;;9.20;4.90;;;;;;;18.68;57.82;98986.73;235088;1209;138539;-60
2022/06/13 01:39:12;;;;;;;8.40;5.00;;;;;;;18.60;57.79;98981.91;234954;1209;139354;-59
2022/06/13 01:44:39;;;;;;;11.90;5.50;;;;;;;18.52;58.02;98968.87;234809;1210;138745;-57
2022/06/13 01:50:10;;;;;;;6.80;4.60;;;;;;;18.45;58.06;98957.30;234985;1209;140201;-58
2022/06/13 01:55:39;;;;;;;10.80;4.70;;;;;;;18.46;58.24;98959.72;234946;1209;142337;-59
2022/06/13 02:01:34;;;;;;;10.70;4.70;;;;;;;18.44;58.51;98960.48;234862;1209;138907;-58
2022/06/13 02:06:43;;;;;;;9.10;4.70;;;;;;;18.39;58.58;98963.61;234926;1208;138560;-59
2022/06/13 02:11:52;;;;;;;9.70;4.50;;;;;;;18.34;58.51;98959.63;234950;1209;138557;-58
2022/06/13 02:17:03;;;;;;;8.50;4.50;;;;;;;18.29;58.62;98954.40;234896;1209;139522;-59
2022/06/13 02:22:10;;;;;;;5.70;3.80;;;;;;;18.25;58.54;98949.25;234896;1209;138607;-59
2022/06/13 02:27:18;;;;;;;196.60;162.60;;;;;;;18.19;58.72;98936.95;234965;1208;137968;-58
2022/06/13 02:32:32;;;;;;;12.20;6.70;;;;;;;18.32;58.87;98930.04;234995;1209;138792;-58
2022/06/13 02:37:42;;;;;;;8.30;4.90;;;;;;;18.48;58.99;98931.92;234578;1209;139599;-59
2022/06/13 02:42:53;;;;;;;129.00;103.00;;;;;;;18.85;60.06;98923.08;234553;1209;140297;-59
2022/06/13 02:48:09;;;;;;;94.30;82.20;;;;;;;19.62;60.75;98920.14;234526;1209;139712;-59
2022/06/13 02:53:36;;;;;;;9.60;5.40;;;;;;;20.16;59.71;98919.75;234611;1209;138604;-59
2022/06/13 02:59:10;;;;;;;12.40;6.10;;;;;;;20.11;57.37;98919.34;234575;1209;138230;-59
2022/06/13 03:04:43;;;;;;;6.00;3.80;;;;;;;19.66;56.72;98916.14;234706;1208;139398;-59
2022/06/13 03:09:57;;;;;;;12.00;5.70;;;;;;;19.28;56.50;98912.36;234763;1209;138801;-59
2022/06/13 03:15:13;;;;;;;9.30;4.10;;;;;;;19.03;56.85;98910.70;234717;1208;138842;-58
2022/06/13 03:20:20;;;;;;;10.10;4.30;;;;;;;18.86;57.11;98908.83;234674;1209;138740;-58
2022/06/13 03:25:40;;;;;;;55.00;46.60;;;;;;;18.73;57.37;98905.59;234943;1209;139695;-57
2022/06/13 03:30:50;;;;;;;16.10;9.70;;;;;;;18.89;58.76;98911.02;233996;1209;139859;-58
2022/06/13 03:35:55;;;;;;;10.90;5.00;;;;;;;19.09;58.23;98904.38;234520;1209;140220;-59
2022/06/13 03:41:02;;;;;;;8.70;4.50;;;;;;;19.01;57.93;98896.86;234589;1208;139431;-59
2022/06/13 03:46:13;;;;;;;10.20;4.70;;;;;;;18.96;58.03;98894.18;234735;1209;138156;-60
2022/06/13 03:51:23;;;;;;;10.50;4.50;;;;;;;18.93;58.35;98887.98;234588;1208;138189;-60
2022/06/13 03:56:43;;;;;;;11.00;4.90;;;;;;;18.91;58.43;98884.17;235153;1205;141502;-60
2022/06/13 04:01:51;;;;;;;7.00;4.30;;;;;;;18.95;58.80;98885.27;235017;1207;138688;-59
2022/06/13 04:06:55;;;;;;;8.30;4.50;;;;;;;19.00;58.94;98885.61;235034;1206;138246;-60
2022/06/13 04:12:10;;;;;;;7.70;4.50;;;;;;;19.14;59.08;98881.40;235108;1206;139473;-58
2022/06/13 04:17:20;;;;;;;9.80;4.30;;;;;;;19.38;59.28;98882.94;235000;1206;140337;-57
2022/06/13 04:22:35;;;;;;;7.60;4.40;;;;;;;19.59;59.27;98888.86;235069;1206;138178;-58
2022/06/13 04:27:46;;;;;;;11.40;4.20;;;;;;;19.77;59.16;98888.86;235130;1206;138488;-58
2022/06/13 04:32:55;;;;;;;9.00;4.50;;;;;;;19.92;59.19;98875.60;235091;1205;138161;-58
2022/06/13 04:38:02;;;;;;;7.90;4.30;;;;;;;20.10;59.18;98869.06;235006;1206;138647;-57
2022/06/13 04:43:13;;;;;;;13.10;5.00;;;;;;;20.25;59.02;98863.36;235013;1206;138435;-58
2022/06/13 04:48:17;;;;;;;8.20;3.80;;;;;;;20.40;58.99;98870.29;235058;1206;139399;-60
2022/06/13 04:53:29;;;;;;;7.70;4.00;;;;;;;20.55;58.22;98870.89;234845;1206;138807;-61
2022/06/13 04:58:38;;;;;;;5.60;3.70;;;;;;;20.74;57.62;98866.98;235392;1203;138086;-61
2022/06/13 05:03:43;;;;;;;6.20;3.70;;;;;;;20.89;57.03;98850.48;235435;1203;138555;-61
2022/06/13 05:08:51;;;;;;;;;;;;;;;21.02;56.93;98844.90;235317;1203;138162;-61
2022/06/13 05:14:07;;;;;;;11.10;3.40;;;;;;;21.14;56.61;98841.05;235419;1204;124796;-61
2022/06/13 05:19:46;;;;;;;8.00;3.40;;;;;;;21.29;55.97;98838.73;235324;1203;138935;-59
2022/06/13 05:25:00;;;;;;;4.90;3.20;;;;;;;21.43;55.51;98834.64;235298;1202;138994;-60
2022/06/13 05:30:04;;;;;;;4.40;3.20;;;;;;;21.54;55.14;98830.89;235294;1203;139257;-57
2022/06/13 05:35:17;;;;;;;4.90;3.40;;;;;;;21.64;55.15;98817.23;235428;1204;138015;-57
2022/06/13 05:40:22;;;;;;;7.30;3.30;;;;;;;21.80;54.81;98825.30;235167;1203;138466;-58
2022/06/13 05:45:25;;;;;;;;;;;;;;;21.88;54.29;98824.36;235469;1203;138534;-60
2022/06/13 05:50:29;;;;;;;4.30;2.60;;;;;;;21.95;53.97;98823.94;235362;1203;126464;-61
2022/06/13 05:55:34;;;;;;;4.70;2.70;;;;;;;22.02;53.77;98823.80;235268;1204;138887;-59
2022/06/13 06:00:42;;;;;;;5.70;2.90;;;;;;;22.10;53.60;98820.45;235263;1204;138532;-58
2022/06/13 06:05:46;;;;;;;7.20;3.00;;;;;;;22.18;53.41;98826.86;235266;1203;138404;-60
2022/06/13 06:10:52;;;;;;;5.60;2.80;;;;;;;22.27;52.88;98828.45;235302;1203;138424;-59
2022/06/13 06:15:56;;;;;;;5.20;2.70;;;;;;;22.38;53.01;98823.60;235309;1204;138787;-60
2022/06/13 06:20:59;;;;;;;10.10;2.70;;;;;;;22.58;52.83;98826.98;235226;1203;139919;-59
2022/06/13 06:26:04;;;;;;;4.30;2.60;;;;;;;22.70;52.48;98828.60;235232;1204;138464;-60
2022/06/13 06:31:10;;;;;;;5.60;2.40;;;;;;;22.79;52.15;98822.55;235277;1204;140765;-62
2022/06/13 06:36:13;;;;;;;12.10;3.20;;;;;;;22.86;51.98;98816.09;235310;1203;138623;-60
2022/06/13 06:41:16;;;;;;;11.30;3.10;;;;;;;22.96;51.90;98810.39;235156;1204;139258;-60
2022/06/13 06:46:20;;;;;;;9.00;2.90;;;;;;;23.05;51.69;98819.86;235260;1203;138640;-59
2022/06/13 06:51:25;;;;;;;6.70;2.40;;;;;;;23.11;51.33;98826.24;235299;1204;138838;-60
2022/06/13 07:02:02;;;;;;;7.60;2.90;;;;;;;23.23;50.79;98823.53;234956;1205;138169;-61
2022/06/13 07:07:05;;;;;;;8.80;2.50;;;;;;;23.29;50.66;98823.90;235261;1203;138932;-60
2022/06/13 07:12:09;;;;;;;7.10;2.70;;;;;;;23.41;50.69;98820.59;235262;1204;139330;-60
2022/06/13 07:17:13;;;;;;;6.00;2.40;;;;;;;23.50;50.37;98814.73;235251;1203;137978;-58
2022/06/13 07:22:20;;;;;;;11.00;2.50;;;;;;;23.59;49.91;98814.91;235336;1204;138603;-57
2022/06/13 07:27:23;;;;;;;5.70;2.50;;;;;;;23.66;49.94;98810.20;235257;1205;138724;-60
2022/06/13 07:32:26;;;;;;;6.00;3.10;;;;;;;23.76;49.74;98808.16;235185;1204;138780;-59
2022/06/13 07:42:54;;;;;;;14.30;2.80;;;;;;;23.87;49.48;98805.70;235278;1204;138607;-59
2022/06/13 07:47:58;;;;;;;11.00;2.90;;;;;;;23.88;49.38;98816.90;235180;1204;138804;-59
2022/06/13 07:53:01;;;;;;;6.80;2.70;;;;;;;23.84;49.53;98805.98;235216;1204;139433;-56
2022/06/13 07:58:05;;;;;;;6.80;2.60;;;;;;;23.90;49.57;98800.17;235302;1204;138574;-60
2022/06/13 08:03:16;;;;;;;4.30;2.20;;;;;;;23.96;49.43;98799.42;235120;1204;139465;-60
2022/06/13 08:08:20;;;;;;;4.30;2.70;;;;;;;24.01;49.34;98795.07;235148;1204;139582;-59
2022/06/13 08:13:24;;;;;;;4.90;3.30;;;;;;;24.13;49.29;98796.04;235069;1205;138913;-62
2022/06/13 08:18:27;;;;;;;5.90;2.60;;;;;;;24.13;49.33;98795.70;235179;1204;140292;-60
2022/06/13 08:23:30;;;;;;;5.90;2.90;;;;;;;24.21;49.58;98799.62;235230;1204;138416;-61
2022/06/13 08:28:33;;;;;;;4.60;3.10;;;;;;;24.28;49.74;98791.62;235269;1204;139732;-60
2022/06/13 08:33:37;;;;;;;8.20;2.90;;;;;;;24.38;49.41;98789.92;235406;1204;140696;-59
2022/06/13 08:38:40;;;;;;;4.70;3.10;;;;;;;24.42;48.46;98778.36;235236;1204;138231;-61
2022/06/13 08:44:08;;;;;;;10.20;3.60;;;;;;;24.52;48.07;98772.16;235207;1204;139192;-61
2022/06/13 08:49:19;;;;;;;3.70;2.80;;;;;;;24.63;47.73;98773.05;235257;1205;138385;-61
2022/06/13 08:54:30;;;;;;;4.50;2.70;;;;;;;24.73;47.55;98772.99;235234;1205;138553;-61
2022/06/13 08:59:39;;;;;;;6.90;2.90;;;;;;;24.85;47.17;98770.02;235239;1205;138791;-63
2022/06/13 09:04:58;;;;;;;3.50;2.60;;;;;;;24.96;46.93;98773.02;235202;1205;138121;-60
2022/06/13 09:10:22;;;;;;;13.40;2.40;;;;;;;25.10;46.62;98764.04;235465;1204;140947;-63
2022/06/13 09:15:31;;;;;;;7.20;2.40;;;;;;;25.30;46.57;98762.02;235401;1203;139032;-61
2022/06/13 09:20:39;;;;;;;6.60;2.00;;;;;;;25.41;46.04;98766.48;235225;1205;138775;-61
2022/06/13 09:26:11;;;;;;;6.50;2.50;;;;;;;25.45;45.62;98777.73;234974;1204;138991;-60
2022/06/13 09:31:31;;;;;;;7.00;3.40;;;;;;;25.48;45.52;98777.14;235272;1204;138378;-60
2022/06/13 09:36:39;;;;;;;5.10;2.60;;;;;;;25.53;45.48;98773.02;235280;1205;138864;-59
2022/06/13 09:41:54;;;;;;;8.70;2.90;;;;;;;25.57;45.54;98770.45;235284;1204;138262;-59
2022/06/13 09:47:08;;;;;;;9.70;3.00;;;;;;;25.70;45.53;98769.80;235200;1205;138576;-57
2022/06/13 09:52:35;;;;;;;12.00;3.50;;;;;;;25.81;45.60;98771.33;235398;1204;138566;-57
2022/06/13 09:57:43;;;;;;;6.50;3.20;;;;;;;25.75;45.44;98774.58;235406;1205;140496;-58
2022/06/13 10:03:07;;;;;;;8.60;3.10;;;;;;;25.70;45.47;98774.12;235307;1204;138925;-56
2022/06/13 10:08:13;;;;;;;3.90;2.80;;;;;;;25.66;45.74;98773.58;235296;1203;138462;-60
2022/06/13 10:13:48;;;;;;;;;;;;;;;25.66;45.72;98772.59;235342;1203;139362;-60
2022/06/13 10:19:22;;;;;;;3.10;1.60;;;;;;;25.62;45.49;98787.10;235363;1204;124752;-60
2022/06/13 10:24:33;;;;;;;4.10;1.90;;;;;;;25.55;44.99;98783.86;235119;1204;138665;-59
2022/06/13 10:30:04;;;;;;;3.90;2.30;;;;;;;25.51;44.90;98792.21;235233;1205;138002;-60
2022/06/13 10:35:07;;;;;;;7.10;2.00;;;;;;;25.38;44.95;98786.83;235295;1204;139080;-56
2022/06/13 10:40:11;;;;;;;2.80;1.80;;;;;;;25.30;45.16;98782.23;235324;1204;138104;-54
2022/06/13 10:45:16;;;;;;;3.20;1.50;;;;;;;25.35;45.06;98777.48;235141;1204;138664;-57
2022/06/13 10:50:35;;;;;;;3.10;1.90;;;;;;;25.41;45.06;98777.13;235322;1204;138503;-56
2022/06/13 10:55:42;;;;;;;5.60;1.70;;;;;;;25.50;45.10;98772.67;235177;1204;139158;-58
2022/06/13 11:01:04;;;;;;;8.80;2.50;;;;;;;25.60;44.53;98782.18;235239;1204;139030;-57
2022/06/13 11:06:21;;;;;;;3.70;2.10;;;;;;;25.74;44.55;98782.16;235262;1204;139211;-57
2022/06/13 11:11:38;;;;;;;3.60;1.60;;;;;;;25.79;44.53;98772.67;235136;1204;138692;-58
2022/06/13 11:27:40;;;;;;;2.60;1.80;;;;;;;25.55;44.13;98765.57;235376;1204;140978;-58
2022/06/13 11:33:18;;;;;;;3.90;2.20;;;;;;;25.38;44.10;98758.41;235195;1203;139089;-59
2022/06/13 11:38:35;;;;;;;4.40;2.00;;;;;;;25.24;44.28;98753.47;235189;1203;139140;-56
2022/06/13 11:43:46;;;;;;;4.50;2.20;;;;;;;25.08;44.36;98751.17;235303;1204;138953;-60
2022/06/13 11:48:50;;;;;;;3.80;1.90;;;;;;;24.91;44.31;98760.41;235313;1204;139083;-57
2022/06/13 11:53:57;;;;;;;3.90;1.80;;;;;;;24.77;44.28;98760.55;235326;1204;139390;-59
2022/06/13 11:59:06;;;;;;;3.20;1.90;;;;;;;24.71;44.53;98771.55;235303;1202;138470;-59
2022/06/13 12:04:13;;;;;;;36.60;25.40;;;;;;;24.66;44.35;98774.66;235365;1204;138305;-57
2022/06/13 12:09:31;;;;;;;5.70;1.90;;;;;;;24.62;44.41;98781.96;235272;1204;139341;-59
2022/06/13 12:14:39;;;;;;;5.80;3.00;;;;;;;24.58;44.17;98772.02;235331;1203;138757;-61
2022/06/13 12:19:52;;;;;;;4.70;1.50;;;;;;;24.47;44.23;98771.32;235259;1204;138834;-56
2022/06/13 12:25:04;;;;;;;4.00;1.40;;;;;;;24.35;44.27;98762.86;235273;1204;138770;-59
2022/06/13 12:30:15;;;;;;;4.00;1.70;;;;;;;24.22;44.22;98763.23;235320;1204;139712;-61
2022/06/13 12:35:25;;;;;;;3.60;1.60;;;;;;;24.05;44.15;98750.96;235310;1203;138386;-58
2022/06/13 12:40:50;;;;;;;7.60;1.80;;;;;;;23.87;44.50;98739.58;235322;1203;140249;-58
2022/06/13 12:46:16;;;;;;;7.40;3.30;;;;;;;23.71;44.99;98721.52;235613;1202;139086;-59
2022/06/13 12:51:59;;;;;;;7.70;3.30;;;;;;;23.55;45.40;98717.22;235841;1204;138286;-56
2022/06/13 12:57:05;;;;;;;4.40;2.20;;;;;;;23.44;45.68;98730.48;235303;1202;138812;-56
2022/06/13 13:02:44;;;;;;;6.40;2.00;;;;;;;23.42;46.00;98742.39;235428;1202;138978;-57
2022/06/13 13:08:01;;;;;;;5.40;1.60;;;;;;;23.38;46.28;98737.05;235387;1204;138433;-58
2022/06/13 13:13:23;;;;;;;2.70;1.60;;;;;;;23.42;46.53;98727.42;235385;1203;140011;-56
2022/06/13 13:18:50;;;;;;;237.40;181.50;;;;;;;23.42;46.85;98721.27;235374;1204;138249;-59
2022/06/13 13:24:23;;;;;;;22.80;14.50;;;;;;;23.46;47.09;98734.96;235332;1203;140012;-57
2022/06/13 13:30:16;;;;;;;6.40;2.90;;;;;;;23.47;47.28;98735.80;234619;1203;139509;-56
2022/06/13 13:35:34;;;;;;;11.80;7.60;;;;;;;23.41;47.34;98736.34;234904;1207;138776;-57
2022/06/13 13:40:43;;;;;;;8.00;4.20;;;;;;;23.41;47.79;98745.89;235106;1204;138502;-58
2022/06/13 13:45:56;;;;;;;11.10;4.60;;;;;;;23.40;48.13;98744.78;235534;1202;138846;-55
2022/06/13 13:51:06;;;;;;;6.80;3.00;;;;;;;23.42;48.18;98747.27;235339;1202;139830;-56
2022/06/13 13:56:26;;;;;;;5.80;2.80;;;;;;;23.41;48.32;98746.09;235341;1203;139436;-57
2022/06/13 14:01:55;;;;;;;4.30;2.20;;;;;;;23.40;48.45;98758.83;235345;1202;138832;-56
2022/06/13 14:07:35;;;;;;;5.20;1.70;;;;;;;23.31;48.49;98757.69;235336;1204;139226;-57
2022/06/13 14:13:02;;;;;;;4.00;2.40;;;;;;;23.17;48.60;98737.86;235311;1204;139698;-56
2022/06/13 14:18:10;;;;;;;8.60;2.80;;;;;;;23.06;48.67;98747.17;235368;1204;139287;-57
2022/06/13 14:23:19;;;;;;;4.20;2.50;;;;;;;22.97;49.08;98752.60;235269;1204;138703;-57
2022/06/13 14:28:23;;;;;;;6.90;2.50;;;;;;;22.86;49.22;98754.59;235479;1204;139319;-57
2022/06/13 14:39:38;;;;;;;10.40;2.10;;;;;;;22.59;49.65;98756.48;235342;1202;138529;-57
2022/06/13 14:44:59;;;;;;;287.30;227.40;;;;;;;22.36;49.68;98761.48;235341;1202;139306;-54
2022/06/13 14:50:02;;;;;;;9.10;4.80;;;;;;;22.10;50.04;98791.77;235403;1203;139971;-54
2022/06/13 14:55:05;;;;;;;4.30;2.50;;;;;;;21.78;50.22;98797.56;235446;1203;150478;-57
2022/06/13 15:00:30;;;;;;;4.20;1.90;;;;;;;21.44;50.64;98802.82;235467;1202;139688;-58
2022/06/13 15:05:32;;;;;;;4.10;2.20;;;;;;;21.10;51.02;98804.19;235491;1203;138506;-58
2022/06/13 15:10:43;;;;;;;6.00;2.00;;;;;;;20.87;51.54;98826.70;235480;1203;139748;-58
2022/06/13 15:15:52;;;;;;;2.80;1.60;;;;;;;20.60;52.09;98844.19;235143;1203;138350;-56
2022/06/13 15:20:56;;;;;;;10.50;2.20;;;;;;;20.33;52.20;98881.27;235410;1203;138315;-57
2022/06/13 15:26:22;;;;;;;3.20;1.60;;;;;;;20.02;52.65;98939.59;235416;1203;139078;-57
2022/06/13 15:31:25;;;;;;;4.30;2.00;;;;;;;19.75;53.14;99000.14;235211;1203;138923;-56
2022/06/13 15:36:29;;;;;;;4.30;1.70;;;;;;;19.56;53.68;98988.88;235463;1203;139400;-57
2022/06/13 15:41:37;;;;;;;9.60;5.30;;;;;;;19.36;54.28;98978.30;235002;1202;138507;-57
2022/06/13 15:46:53;;;;;;;6.10;3.40;;;;;;;19.20;54.73;98959.76;235424;1203;138948;-54
2022/06/13 15:51:58;;;;;;;8.90;5.20;;;;;;;19.10;55.46;98947.90;235485;1203;140136;-54
2022/06/13 15:57:18;;;;;;;3.80;2.20;;;;;;;19.10;55.99;98933.10;235500;1203;138615;-56
2022/06/13 16:02:26;;;;;;;2.80;1.90;;;;;;;19.09;56.28;98910.30;235510;1202;139254;-58
2022/06/13 16:07:32;;;;;;;3.70;2.00;;;;;;;19.14;56.59;98902.42;235420;1202;139885;-55
2022/06/13 16:12:42;;;;;;;3.50;1.60;;;;;;;19.18;56.48;98924.16;235476;1203;138455;-56
2022/06/13 16:17:51;;;;;;;4.40;2.60;;;;;;;19.09;56.37;98957.20;235114;1203;139127;-54
2022/06/13 16:23:09;;;;;;;2.20;1.50;;;;;;;18.94;56.25;98962.84;235392;1201;138303;-56
2022/06/13 16:28:16;;;;;;;5.00;3.00;;;;;;;18.76;56.35;98964.23;235631;1203;138439;-54
2022/06/13 16:33:25;;;;;;;2.60;1.90;;;;;;;18.79;57.08;98959.62;235453;1203;138749;-54
2022/06/13 16:38:46;;;;;;;12.10;7.50;;;;;;;18.69;56.65;98958.30;235397;1203;138842;-56
2022/06/13 16:43:52;;;;;;;3.20;1.80;;;;;;;18.59;56.89;98972.51;235519;1203;139486;-56
2022/06/13 16:49:00;;;;;;;9.80;2.10;;;;;;;18.49;56.95;98966.28;235407;1203;138965;-54
2022/06/13 16:54:08;;;;;;;5.80;2.30;;;;;;;18.44;57.45;98974.11;235404;1203;138386;-54
2022/06/13 16:59:27;;;;;;;6.00;3.20;;;;;;;18.45;57.53;98963.11;235438;1202;140029;-54
2022/06/13 17:04:34;;;;;;;3.30;1.80;;;;;;;18.41;57.69;98963.46;235593;1203;138532;-55
2022/06/13 17:10:05;;;;;;;4.00;1.70;;;;;;;18.30;57.83;98969.02;235581;1202;138748;-56
2022/06/13 17:15:08;;;;;;;3.90;1.70;;;;;;;18.30;57.88;98976.75;235335;1203;138478;-56
2022/06/13 17:20:34;;;;;;;3.90;1.90;;;;;;;18.24;57.99;98986.77;235343;1202;139216;-56
2022/06/13 17:36:25;;;;;;;17.10;13.90;;;;;;;18.30;58.60;98998.14;234979;1203;139057;-58
2022/06/13 17:41:28;;;;;;;3.20;2.10;;;;;;;18.41;58.69;99003.55;235050;1203;138932;-58
2022/06/13 17:46:33;;;;;;;4.80;2.10;;;;;;;18.42;58.68;99000.20;234883;1202;138789;-54
2022/06/13 17:51:36;;;;;;;3.40;1.90;;;;;;;18.42;58.32;98999.66;235035;1202;138327;-55
2022/06/13 17:56:44;;;;;;;3.90;2.10;;;;;;;18.36;58.45;99016.02;235433;1202;138659;-56
2022/06/13 18:01:47;;;;;;;2.80;1.90;;;;;;;18.31;58.48;99030.74;235214;1202;138320;-52
2022/06/13 18:06:54;;;;;;;5.20;2.40;;;;;;;18.25;58.96;99030.73;235509;1202;139951;-56
2022/06/13 18:11:58;;;;;;;3.60;2.10;;;;;;;18.22;59.01;99021.79;235533;1203;140488;-53
2022/06/13 18:17:01;;;;;;;5.00;2.40;;;;;;;18.26;58.82;99037.86;234812;1203;139490;-54
2022/06/13 18:22:05;;;;;;;5.50;2.90;;;;;;;18.20;59.33;99050.77;235653;1203;138578;-54
2022/06/13 18:27:14;;;;;;;78.40;61.10;;;;;;;18.15;59.53;99053.33;235544;1202;138668;-55
2022/06/13 18:32:18;;;;;;;7.80;4.60;;;;;;;18.09;59.53;99053.05;235580;1202;139157;-57
2022/06/13 18:37:22;;;;;;;6.60;4.50;;;;;;;18.09;59.80;99069.86;235409;1202;138048;-57
2022/06/13 18:42:28;;;;;;;7.60;4.60;;;;;;;18.01;59.89;99072.61;235581;1203;138666;-55
2022/06/13 18:47:31;;;;;;;9.20;5.30;;;;;;;18.00;60.27;99081.02;235483;1202;140322;-57
2022/06/13 18:52:34;;;;;;;10.20;5.50;;;;;;;18.08;60.68;99083.84;235448;1202;139125;-57
2022/06/13 18:57:37;;;;;;;8.30;6.00;;;;;;;18.16;60.62;99088.60;234990;1203;140047;-54
2022/06/13 19:02:45;;;;;;;198.00;133.00;;;;;;;18.24;60.79;99085.46;235384;1202;138339;-56
2022/06/13 19:07:48;;;;;;;17.60;11.40;;;;;;;18.35;60.62;99097.27;235560;1203;138623;-54
2022/06/13 19:12:55;;;;;;;10.20;6.80;;;;;;;18.37;60.43;99109.91;235219;1203;140382;-56
2022/06/13 19:18:02;;;;;;;9.40;6.30;;;;;;;18.37;60.49;99112.94;235594;1201;139187;-57
2022/06/13 19:23:05;;;;;;;9.80;5.80;;;;;;;18.34;60.60;99120.75;235591;1203;139731;-56
2022/06/13 19:28:10;;;;;;;10.20;4.90;;;;;;;18.33;60.36;99133.60;235673;1203;139818;-57
2022/06/13 19:33:15;;;;;;;8.70;4.80;;;;;;;18.34;60.70;99133.20;235557;1203;138535;-56
2022/06/13 19:38:19;;;;;;;;;;;;;;;18.38;60.56;99132.30;235006;1203;138802;-54
2022/06/13 19:43:25;;;;;;;9.40;5.20;;;;;;;18.32;60.72;99129.61;235436;1202;125448;-56
2022/06/13 19:48:29;;;;;;;11.10;5.40;;;;;;;18.28;60.45;99143.11;235554;1202;140070;-57
2022/06/13 19:53:36;;;;;;;7.70;5.40;;;;;;;18.16;60.68;99153.81;235430;1202;138667;-57
2022/06/13 19:58:41;;;;;;;8.60;4.70;;;;;;;18.14;60.77;99161.96;235476;1202;138475;-56
2022/06/13 20:03:46;;;;;;;10.60;7.50;;;;;;;18.10;60.74;99156.22;235558;1202;139799;-55
2022/06/13 20:08:49;;;;;;;7.40;5.60;;;;;;;18.14;61.19;99167.68;235663;1203;139266;-57
2022/06/13 20:13:58;;;;;;;6.60;4.20;;;;;;;18.12;61.10;99185.43;235516;1201;138924;-57
2022/06/13 20:19:13;;;;;;;5.50;2.80;;;;;;;18.04;60.64;99202.68;235621;1203;139893;-58
2022/06/13 20:24:18;;;;;;;4.10;1.80;;;;;;;17.86;59.65;99198.91;235700;1203;138211;-56
2022/06/13 20:29:22;;;;;;;;;;;;;;;17.75;58.66;99208.87;235689;1203;139211;-57
2022/06/13 20:34:32;;;;;;;2.40;1.50;;;;;;;17.52;58.01;99214.71;235883;1203;125542;-57
2022/06/13 20:39:41;;;;;;;2.90;1.60;;;;;;;17.27;58.07;99217.74;235756;1202;139224;-55
2022/06/13 20:44:48;;;;;;;4.30;1.90;;;;;;;17.07;58.09;99217.49;235716;1202;138875;-55
2022/06/13 20:49:53;;;;;;;3.40;1.20;;;;;;;16.86;58.21;99182.63;235655;1203;139322;-57
2022/06/13 20:54:56;;;;;;;4.90;1.40;;;;;;;16.66;58.36;99156.48;235566;1203;139068;-56
2022/06/13 20:59:59;;;;;;;3.70;1.30;;;;;;;16.57;58.85;99153.70;235667;1203;139601;-57
2022/06/13 21:05:03;;;;;;;3.50;1.50;;;;;;;16.46;59.36;99153.20;235641;1203;138623;-57
2022/06/13 21:10:08;;;;;;;4.50;1.30;;;;;;;16.40;59.65;99156.40;235737;1203;138748;-57
2022/06/13 21:15:21;;;;;;;4.30;1.90;;;;;;;16.27;59.57;99154.59;235699;1202;138416;-57
2022/06/13 21:20:26;;;;;;;2.70;1.70;;;;;;;16.20;59.77;99157.55;235546;1202;138466;-56
2022/06/13 21:25:32;;;;;;;3.50;1.50;;;;;;;16.10;59.71;99156.36;235548;1202;139341;-57
2022/06/13 21:30:38;;;;;;;2.20;1.50;;;;;;;16.10;59.58;99175.37;235646;1202;138867;-58
2022/06/13 21:35:42;;;;;;;3.50;1.50;;;;;;;16.12;59.68;99174.13;235584;1202;138992;-53
2022/06/13 21:40:51;;;;;;;5.00;1.50;;;;;;;16.11;59.61;99180.97;236055;1203;139591;-56
2022/06/13 21:45:54;;;;;;;3.00;1.40;;;;;;;16.10;59.35;99184.45;236288;1201;138928;-56
2022/06/13 21:50:58;;;;;;;5.90;1.90;;;;;;;16.07;59.52;99191.13;236211;1203;138797;-56
2022/06/13 21:56:03;;;;;;;3.40;1.80;;;;;;;16.07;59.44;99188.84;236152;1202;139582;-57
2022/06/13 22:01:10;;;;;;;5.90;2.00;;;;;;;16.09;59.61;99197.94;236187;1203;138891;-56
2022/06/13 22:06:13;;;;;;;4.30;1.90;;;;;;;16.00;59.46;99189.59;236197;1201;138403;-55
2022/06/13 22:11:17;;;;;;;4.00;1.70;;;;;;;15.97;59.61;99193.63;236130;1202;138203;-56
2022/06/13 22:16:20;;;;;;;4.30;1.80;;;;;;;15.90;59.73;99187.92;236121;1202;139188;-56
2022/06/13 22:21:23;;;;;;;4.60;1.70;;;;;;;15.87;59.90;99191.89;235822;1202;139084;-57
2022/06/13 22:26:27;;;;;;;4.40;1.90;;;;;;;15.81;59.88;99188.06;235578;1203;138842;-58
2022/06/13 22:31:31;;;;;;;4.70;1.70;;;;;;;15.76;59.96;99187.77;235650;1203;139184;-55
2022/06/13 22:36:37;;;;;;;4.20;1.80;;;;;;;15.70;60.02;99188.45;235756;1202;138734;-57
2022/06/13 22:41:40;;;;;;;;;;;;;;;15.66;60.04;99191.05;235376;1203;141253;-57
2022/06/13 22:52:06;;;;;;;5.20;1.90;;;;;;;15.62;60.36;99194.42;235803;1203;139441;-55
2022/06/13 22:57:09;;;;;;;4.10;1.50;;;;;;;15.61;60.33;99193.04;235688;1202;138749;-56
2022/06/13 23:02:13;;;;;;;3.10;2.10;;;;;;;15.58;60.37;99191.17;235705;1202;139769;-57
2022/06/13 23:07:16;;;;;;;5.90;2.00;;;;;;;15.55;60.33;99192.87;235738;1203;139505;-56
2022/06/13 23:12:18;;;;;;;4.40;2.30;;;;;;;15.48;60.51;99198.63;235677;1202;138725;-55
2022/06/13 23:17:21;;;;;;;4.60;2.20;;;;;;;15.42;60.50;99203.50;235743;1203;139063;-55
2022/06/13 23:22:27;;;;;;;5.80;2.60;;;;;;;15.40;60.71;99208.17;234959;1203;139266;-57
2022/06/13 23:27:30;;;;;;;;;;;;;;;15.40;60.69;99212.33;235806;1203;139172;-57
2022/06/13 23:32:34;;;;;;;6.10;2.70;;;;;;;15.42;60.91;99210.36;235909;1202;127776;-56
2022/06/13 23:37:37;;;;;;;4.10;2.60;;;;;;;15.37;60.79;99209.64;235684;1203;139619;-57
2022/06/13 23:42:40;;;;;;;5.80;2.80;;;;;;;15.35;60.85;99208.04;235629;1203;139737;-56
2022/06/13 23:48:01;;;;;;;5.90;3.10;;;;;;;15.32;60.84;99216.83;235705;1203;139107;-58
2022/06/13 23:53:22;;;;;;;4.40;2.50;;;;;;;15.26;60.73;99218.41;235722;1203;139005;-58
2022/06/13 23:58:42;;;;;;;5.60;2.80;;;;;;;15.22;60.91;99212.27;235708;1203;138667;-59
